Time;durP1;ratioP1;P1;durP2;ratioP2;P2;SDS_P1;SDS_P2;PMS_P1;PMS_P2;Temp;Humidity;BMP_temperature;BMP_pressure;BME280_temperature;BME280_humidity;BME280_pressure;Samples;Min_cycle;Max_cycle;Signal;HPM_P1;HPM_P2
2023/04/07 00:02:27;;;;;;;45.53;21.37;;;0.20;99.90;;;;;;4442887;28;657711;-66
2023/04/07 00:05:14;;;;;;;42.53;21.08;;;0.10;99.90;;;;;;4438461;28;658617;-65
2023/04/07 00:08:02;;;;;;;41.07;20.30;;;0.20;99.90;;;;;;4422794;28;657896;-65
2023/04/07 00:10:49;;;;;;;47.47;21.30;;;0.20;99.90;;;;;;4451623;28;657383;-65
2023/04/07 00:13:36;;;;;;;45.17;21.30;;;0.20;99.90;;;;;;4434048;28;659112;-65
2023/04/07 00:16:23;;;;;;;45.47;20.90;;;0.20;99.90;;;;;;4436615;28;658654;-66
2023/04/07 00:19:12;;;;;;;43.83;21.83;;;0.20;99.90;;;;;;4426542;28;657502;-65
2023/04/07 00:21:59;;;;;;;46.07;22.33;;;0.20;99.90;;;;;;4450358;28;658248;-65
2023/04/07 00:24:46;;;;;;;44.08;21.17;;;0.10;99.90;;;;;;4432132;28;658456;-65
2023/04/07 00:27:33;;;;;;;45.53;23.23;;;0.10;99.90;;;;;;4444670;28;658499;-66
2023/04/07 00:30:21;;;;;;;55.77;24.27;;;0.10;99.90;;;;;;4426702;28;657473;-66
2023/04/07 00:33:08;;;;;;;45.37;21.20;;;0.10;99.90;;;;;;4444985;28;658478;-67
2023/04/07 00:35:57;;;;;;;42.70;21.60;;;0.10;99.90;;;;;;4428303;28;658306;-67
2023/04/07 00:38:44;;;;;;;39.57;19.20;;;0.20;99.90;;;;;;4444873;28;657272;-66
2023/04/07 00:41:34;;;;;;;44.20;20.37;;;0.10;99.90;;;;;;4434356;28;658279;-67
2023/04/07 00:44:21;;;;;;;45.03;20.80;;;0.10;99.90;;;;;;4430932;28;657646;-66
2023/04/07 00:47:08;;;;;;;53.45;23.80;;;0.10;99.90;;;;;;4456094;28;658056;-65
2023/04/07 00:49:55;;;;;;;49.23;22.87;;;0.10;99.90;;;;;;4438432;28;658368;-66
2023/04/07 00:52:44;;;;;;;46.73;22.00;;;0.10;99.90;;;;;;4437963;28;658762;-66
2023/04/07 00:55:31;;;;;;;50.30;23.53;;;0.20;99.90;;;;;;4422254;28;657780;-66
2023/04/07 00:58:19;;;;;;;50.77;22.77;;;0.20;99.90;;;;;;4447675;28;658043;-65
2023/04/07 01:01:08;;;;;;;47.78;24.17;;;0.20;99.90;;;;;;4419695;28;657715;-66
2023/04/07 01:04:04;;;;;;;51.80;23.77;;;0.20;99.90;;;;;;4420188;28;658590;-65
2023/04/07 01:06:51;;;;;;;49.40;23.33;;;0.20;99.90;;;;;;4432046;28;658294;-65
2023/04/07 01:09:43;;;;;;;46.40;20.97;;;0.20;99.90;;;;;;4447616;28;658601;-65
2023/04/07 01:12:35;;;;;;;49.33;22.20;;;0.20;99.90;;;;;;4408389;28;657568;-66
2023/04/07 01:15:22;;;;;;;49.47;21.73;;;0.20;99.90;;;;;;4419464;28;659003;-65
2023/04/07 01:18:13;;;;;;;46.87;22.13;;;0.20;99.90;;;;;;4449872;28;657185;-65
2023/04/07 01:21:03;;;;;;;41.53;19.47;;;0.10;99.90;;;;;;4395942;28;657365;-66
2023/04/07 01:23:59;;;;;;;47.70;21.50;;;0.20;99.90;;;;;;4422076;28;657658;-67
2023/04/07 01:26:47;;;;;;;46.73;21.00;;;0.10;99.90;;;;;;4406100;28;658438;-65
2023/04/07 01:29:39;;;;;;;48.03;21.03;;;0.10;99.90;;;;;;4457410;28;658146;-66
2023/04/07 01:32:26;;;;;;;44.37;21.00;;;0.10;99.90;;;;;;4430821;28;657745;-66
2023/04/07 01:35:13;;;;;;;47.42;21.70;;;0.10;99.90;;;;;;4452088;28;659011;-65
2023/04/07 01:38:01;;;;;;;46.93;22.40;;;0.20;99.90;;;;;;4421675;28;657272;-66
2023/04/07 01:40:48;;;;;;;50.50;22.40;;;0.20;99.90;;;;;;4458486;28;658725;-65
2023/04/07 01:43:35;;;;;;;48.53;22.93;;;0.20;99.90;;;;;;4432144;28;657904;-67
2023/04/07 01:46:24;;;;;;;49.43;24.27;;;0.20;99.90;;;;;;4456291;28;657634;-66
2023/04/07 01:49:11;;;;;;;49.53;22.33;;;0.20;99.90;;;;;;4435357;28;657928;-66
2023/04/07 01:51:58;;;;;;;52.23;22.07;;;0.10;99.90;;;;;;4450823;28;658077;-65
2023/04/07 01:54:46;;;;;;;53.30;23.27;;;0.10;99.90;;;;;;4433522;28;658066;-66
2023/04/07 01:57:33;;;;;;;52.30;21.90;;;0.10;99.90;;;;;;4460440;28;658204;-67
2023/04/07 02:00:20;;;;;;;57.03;22.50;;;0.10;99.90;;;;;;4421970;28;657483;-67
2023/04/07 02:03:19;;;;;;;49.30;21.23;;;0.10;99.90;;;;;;4458054;28;657666;-65
2023/04/07 02:06:07;;;;;;;51.03;23.20;;;0.10;99.90;;;;;;4407675;28;657928;-65
2023/04/07 02:08:57;;;;;;;53.50;21.17;;;0.20;99.90;;;;;;4456223;28;657950;-65
2023/04/07 02:11:45;;;;;;;51.97;21.85;;;0.20;99.90;;;;;;4439457;28;658907;-65
2023/04/07 02:14:32;;;;;;;55.00;22.63;;;0.30;99.90;;;;;;4436387;28;658886;-66
2023/04/07 02:17:19;;;;;;;49.13;21.80;;;0.20;99.90;;;;;;4453897;28;659054;-67
2023/04/07 02:20:09;;;;;;;61.70;23.23;;;0.30;99.90;;;;;;4433528;28;657386;-65
2023/04/07 02:22:56;;;;;;;53.67;22.60;;;0.30;99.90;;;;;;4432455;28;658629;-65
2023/04/07 02:25:43;;;;;;;52.97;20.93;;;0.30;99.90;;;;;;4453386;28;658365;-65
2023/04/07 02:28:30;;;;;;;49.13;20.93;;;0.20;99.90;;;;;;4432909;28;657612;-66
2023/04/07 02:31:18;;;;;;;51.90;22.30;;;0.20;99.90;;;;;;4452411;28;658495;-65
2023/04/07 02:34:05;;;;;;;50.77;21.93;;;0.30;99.90;;;;;;4445548;28;657917;-66
2023/04/07 02:36:54;;;;;;;45.63;20.13;;;0.20;99.90;;;;;;4438879;28;658442;-67
2023/04/07 02:39:41;;;;;;;49.07;20.60;;;0.20;99.90;;;;;;4427062;28;657269;-67
2023/04/07 02:42:28;;;;;;;51.85;21.23;;;0.20;99.90;;;;;;4457222;28;658954;-65
2023/04/07 02:45:15;;;;;;;53.70;21.23;;;0.20;99.90;;;;;;4429010;28;658504;-66
2023/04/07 02:48:03;;;;;;;51.30;21.93;;;0.20;99.90;;;;;;4451101;28;658309;-66
2023/04/07 02:50:50;;;;;;;54.15;22.00;;;0.20;99.90;;;;;;4437737;28;657789;-67
2023/04/07 02:53:39;;;;;;;54.10;22.87;;;0.10;99.90;;;;;;4458044;28;658110;-66
2023/04/07 02:56:26;;;;;;;49.97;20.47;;;0.20;99.90;;;;;;4440470;28;658325;-66
2023/04/07 02:59:13;;;;;;;53.33;22.73;;;0.20;99.90;;;;;;4459205;28;659450;-65
2023/04/07 03:02:00;;;;;;;52.20;20.50;;;0.20;99.90;;;;;;4439432;28;657765;-66
2023/04/07 03:04:47;;;;;;;52.53;21.50;;;0.20;99.90;;;;;;4439583;28;658242;-66
2023/04/07 03:07:35;;;;;;;47.90;20.90;;;0.30;99.90;;;;;;4447532;28;658040;-67
2023/04/07 03:10:24;;;;;;;43.47;19.83;;;0.30;99.90;;;;;;4453917;28;658582;-67
2023/04/07 03:13:15;;;;;;;48.80;19.63;;;0.40;99.90;;;;;;4439385;28;657652;-66
2023/04/07 03:16:02;;;;;;;42.83;18.83;;;0.30;99.90;;;;;;4425006;28;658827;-66
2023/04/07 03:18:49;;;;;;;49.77;20.03;;;0.30;99.90;;;;;;4454621;28;657656;-66
2023/04/07 03:21:37;;;;;;;49.10;20.87;;;0.20;99.90;;;;;;4442938;28;658167;-65
2023/04/07 03:24:25;;;;;;;50.20;19.83;;;0.20;99.90;;;;;;4446592;28;658374;-66
2023/04/07 03:27:13;;;;;;;46.27;19.80;;;0.20;99.90;;;;;;4434946;28;658249;-66
2023/04/07 03:30:00;;;;;;;52.10;19.93;;;0.30;99.90;;;;;;4431938;28;658057;-66
2023/04/07 03:32:47;;;;;;;57.93;21.13;;;0.30;99.90;;;;;;4448261;28;658842;-66
2023/04/07 03:35:35;;;;;;;55.93;20.23;;;0.20;99.90;;;;;;4449554;28;657658;-68
2023/04/07 03:38:22;;;;;;;52.33;20.70;;;0.30;99.90;;;;;;4455617;28;657924;-66
2023/04/07 03:41:09;;;;;;;51.53;19.63;;;0.30;99.90;;;;;;4439193;28;657706;-66
2023/04/07 03:43:58;;;;;;;45.93;19.87;;;0.30;99.90;;;;;;4434143;28;658458;-66
2023/04/07 03:46:46;;;;;;;49.73;18.70;;;0.30;99.90;;;;;;4440205;28;658774;-67
2023/04/07 03:49:36;;;;;;;48.87;19.00;;;0.30;99.90;;;;;;4445681;28;657931;-67
2023/04/07 03:52:23;;;;;;;46.43;18.37;;;0.30;99.90;;;;;;4427719;28;658026;-65
2023/04/07 03:55:10;;;;;;;43.38;17.90;;;0.30;99.90;;;;;;4430125;28;657621;-67
2023/04/07 03:57:57;;;;;;;42.73;17.37;;;0.30;99.90;;;;;;4450716;28;658590;-65
2023/04/07 04:00:46;;;;;;;49.17;19.10;;;0.20;99.90;;;;;;4438062;28;657796;-67
2023/04/07 04:03:34;;;;;;;42.23;17.50;;;0.30;99.90;;;;;;4449562;28;657945;-67
2023/04/07 04:06:21;;;;;;;39.07;16.43;;;0.20;99.90;;;;;;4434689;28;657838;-65
2023/04/07 04:09:08;;;;;;;44.53;18.40;;;0.20;99.90;;;;;;4453121;28;658384;-65
2023/04/07 04:11:55;;;;;;;38.63;16.08;;;0.30;99.90;;;;;;4435824;28;657636;-67
2023/04/07 04:14:43;;;;;;;43.70;17.17;;;0.30;99.90;;;;;;4434307;28;658779;-65
2023/04/07 04:17:32;;;;;;;42.23;17.33;;;0.40;99.90;;;;;;4435146;28;658387;-67
2023/04/07 04:20:21;;;;;;;40.07;16.37;;;0.30;99.90;;;;;;4445068;28;658913;-66
2023/04/07 04:23:08;;;;;;;40.73;17.00;;;0.30;99.90;;;;;;4430021;28;658517;-66
2023/04/07 04:25:55;;;;;;;35.73;16.83;;;0.20;99.90;;;;;;4440264;28;657644;-67
2023/04/07 04:28:42;;;;;;;40.53;17.93;;;0.30;99.90;;;;;;4445499;28;658993;-65
2023/04/07 04:31:30;;;;;;;32.77;14.37;;;0.30;99.90;;;;;;4441893;28;657637;-68
2023/04/07 04:34:19;;;;;;;42.53;16.47;;;0.40;99.90;;;;;;4454395;28;657902;-65
2023/04/07 04:37:06;;;;;;;46.73;18.50;;;0.40;99.90;;;;;;4432876;28;657576;-67
2023/04/07 04:39:53;;;;;;;39.83;17.13;;;0.30;99.90;;;;;;4450043;28;658635;-65
2023/04/07 04:42:41;;;;;;;46.27;18.97;;;0.30;99.90;;;;;;4435851;28;657685;-66
2023/04/07 04:45:28;;;;;;;41.80;17.90;;;0.30;99.90;;;;;;4461425;28;659014;-66
2023/04/07 04:48:16;;;;;;;42.70;18.03;;;0.30;99.90;;;;;;4438329;28;657339;-67
2023/04/07 04:51:05;;;;;;;47.33;18.42;;;0.40;99.90;;;;;;4461994;28;657014;-65
2023/04/07 04:53:52;;;;;;;47.57;18.43;;;0.40;99.90;;;;;;4431448;28;658696;-66
2023/04/07 04:56:39;;;;;;;44.30;17.73;;;0.40;99.90;;;;;;4458532;28;658071;-66
2023/04/07 04:59:26;;;;;;;46.97;18.70;;;0.40;99.90;;;;;;4437341;28;657828;-66
2023/04/07 05:02:14;;;;;;;72.63;19.43;;;0.40;99.90;;;;;;4446814;28;659045;-65
2023/04/07 05:05:01;;;;;;;48.03;19.27;;;0.50;99.90;;;;;;4427264;28;657919;-66
2023/04/07 05:07:50;;;;;;;51.00;18.53;;;0.60;99.90;;;;;;4455415;28;658099;-66
2023/04/07 05:10:39;;;;;;;47.13;18.37;;;0.50;99.90;;;;;;4417506;28;658521;-66
2023/04/07 05:13:26;;;;;;;43.50;17.83;;;0.60;99.90;;;;;;4427956;28;658387;-66
2023/04/07 05:16:13;;;;;;;40.73;17.23;;;0.60;99.90;;;;;;4460979;28;658641;-66
2023/04/07 05:19:00;;;;;;;72.07;20.93;;;0.70;99.90;;;;;;4436754;28;658877;-66
2023/04/07 05:21:48;;;;;;;44.47;17.97;;;0.70;99.90;;;;;;4451797;28;658658;-70
2023/04/07 05:24:37;;;;;;;42.00;16.20;;;0.60;99.90;;;;;;4449074;28;658470;-70
2023/04/07 05:27:24;;;;;;;38.23;15.87;;;0.60;99.90;;;;;;4454338;28;657884;-70
2023/04/07 05:30:12;;;;;;;33.60;15.00;;;0.70;99.90;;;;;;4433124;28;659026;-70
2023/04/07 05:32:59;;;;;;;33.53;14.45;;;0.60;99.90;;;;;;4449586;28;659278;-70
2023/04/07 05:35:46;;;;;;;39.83;15.77;;;0.60;99.90;;;;;;4422250;28;657634;-70
2023/04/07 05:38:34;;;;;;;39.67;15.17;;;0.70;99.90;;;;;;4436170;28;658726;-70
2023/04/07 05:41:22;;;;;;;38.67;16.43;;;0.80;99.90;;;;;;4425979;28;658253;-71
2023/04/07 05:44:10;;;;;;;38.67;16.00;;;0.70;99.90;;;;;;4452051;28;658372;-70
2023/04/07 05:46:57;;;;;;;33.07;13.13;;;0.70;99.90;;;;;;4461827;28;658014;-71
2023/04/07 05:49:46;;;;;;;48.57;16.20;;;0.70;99.90;;;;;;4449568;28;657274;-71
2023/04/07 05:52:33;;;;;;;41.13;16.03;;;0.60;99.90;;;;;;4456267;28;658483;-70
2023/04/07 05:55:20;;;;;;;42.27;16.93;;;0.60;99.90;;;;;;4426212;28;657763;-71
2023/04/07 05:58:09;;;;;;;38.23;14.87;;;0.70;99.90;;;;;;4458265;28;657361;-71
2023/04/07 06:00:56;;;;;;;40.67;16.77;;;0.60;99.90;;;;;;4433552;28;657727;-71
2023/04/07 06:03:43;;;;;;;41.28;16.02;;;0.60;99.90;;;;;;4443917;28;658647;-71
2023/04/07 06:06:30;;;;;;;39.93;17.00;;;0.70;99.90;;;;;;4436337;28;657509;-71
2023/04/07 06:09:17;;;;;;;36.43;15.33;;;0.80;99.90;;;;;;4456539;28;658237;-72
2023/04/07 06:12:05;;;;;;;51.20;17.30;;;0.60;99.90;;;;;;4441750;28;657756;-71
2023/04/07 06:14:54;;;;;;;41.17;15.87;;;0.60;99.90;;;;;;4441593;28;658879;-71
2023/04/07 06:17:44;;;;;;;48.10;16.20;;;0.60;99.90;;;;;;4437352;28;658212;-71
2023/04/07 06:20:31;;;;;;;41.77;15.47;;;0.70;99.90;;;;;;4431961;28;657759;-71
2023/04/07 06:23:18;;;;;;;45.50;16.27;;;0.70;99.90;;;;;;4458515;28;658303;-71
2023/04/07 06:26:05;;;;;;;38.13;15.53;;;0.70;99.90;;;;;;4438275;28;657750;-71
2023/04/07 06:28:53;;;;;;;37.77;15.37;;;0.90;99.90;;;;;;4437669;28;659469;-72
2023/04/07 06:31:42;;;;;;;37.33;16.00;;;0.90;99.90;;;;;;4433799;28;657765;-72
2023/04/07 06:34:29;;;;;;;38.03;14.53;;;0.90;99.90;;;;;;4457690;28;656998;-71
2023/04/07 06:37:16;;;;;;;35.23;14.90;;;0.90;99.90;;;;;;4433504;28;657818;-71
2023/04/07 06:40:04;;;;;;;36.43;14.57;;;0.90;99.90;;;;;;4457272;28;658390;-71
2023/04/07 06:42:53;;;;;;;39.80;14.90;;;0.80;99.90;;;;;;4434821;28;657587;-72
2023/04/07 06:45:40;;;;;;;39.92;15.57;;;0.80;99.90;;;;;;4431779;28;657541;-71
2023/04/07 06:48:29;;;;;;;41.97;16.73;;;0.80;99.90;;;;;;4459060;28;658686;-71
2023/04/07 06:51:16;;;;;;;42.77;16.60;;;0.70;99.90;;;;;;4423613;28;657560;-71
2023/04/07 06:54:04;;;;;;;46.03;17.80;;;0.90;99.90;;;;;;4440840;28;658270;-71
2023/04/07 06:56:52;;;;;;;42.67;16.10;;;0.70;99.90;;;;;;4425041;28;657555;-71
2023/04/07 06:59:39;;;;;;;48.23;17.77;;;0.70;99.90;;;;;;4434498;28;657426;-71
2023/04/07 07:02:26;;;;;;;40.43;17.17;;;0.70;99.90;;;;;;4427710;28;658200;-71
2023/04/07 07:05:15;;;;;;;43.63;17.43;;;0.70;99.90;;;;;;4458774;28;658253;-71
2023/04/07 07:08:02;;;;;;;51.27;16.53;;;0.90;99.90;;;;;;4413355;28;658446;-71
2023/04/07 07:10:49;;;;;;;37.80;15.88;;;1.00;99.90;;;;;;4439646;28;657671;-71
2023/04/07 07:13:37;;;;;;;45.27;16.80;;;1.10;99.90;;;;;;4416284;28;658127;-71
2023/04/07 07:16:24;;;;;;;33.53;14.20;;;1.10;99.90;;;;;;4453403;28;656977;-71
2023/04/07 07:19:11;;;;;;;39.53;16.20;;;1.20;99.90;;;;;;4418931;28;658043;-71
2023/04/07 07:22:02;;;;;;;43.40;16.43;;;1.20;99.90;;;;;;4452712;28;658893;-71
2023/04/07 07:24:50;;;;;;;38.97;14.67;;;1.30;99.90;;;;;;4441805;28;657356;-71
2023/04/07 07:27:37;;;;;;;40.27;15.47;;;1.10;99.90;;;;;;4439896;28;658356;-69
2023/04/07 07:30:25;;;;;;;40.27;15.27;;;1.10;99.90;;;;;;4441429;28;657609;-70
2023/04/07 07:33:12;;;;;;;50.93;16.80;;;1.20;99.90;;;;;;4418623;28;658666;-71
2023/04/07 07:35:59;;;;;;;43.10;15.60;;;1.20;99.90;;;;;;4437166;28;658467;-70
2023/04/07 07:38:50;;;;;;;44.17;16.60;;;1.40;99.90;;;;;;4429966;28;657852;-71
2023/04/07 07:41:37;;;;;;;38.80;17.13;;;1.60;99.90;;;;;;4415000;28;658623;-70
2023/04/07 07:44:24;;;;;;;41.23;16.60;;;1.40;99.90;;;;;;4437968;28;658083;-70
2023/04/07 07:47:11;;;;;;;43.23;16.70;;;1.40;99.90;;;;;;4417074;28;657839;-71
2023/04/07 07:49:58;;;;;;;45.53;16.77;;;1.40;99.90;;;;;;4443060;28;657871;-70
2023/04/07 07:52:46;;;;;;;54.83;18.63;;;1.10;99.90;;;;;;4429437;28;657818;-70
2023/04/07 07:55:35;;;;;;;51.07;18.30;;;1.30;99.90;;;;;;4451723;28;658166;-71
2023/04/07 07:58:22;;;;;;;46.20;18.50;;;1.30;99.90;;;;;;4423157;28;659252;-71
2023/04/07 08:01:09;;;;;;;48.23;18.40;;;1.40;99.90;;;;;;4439662;28;657738;-71
2023/04/07 08:03:56;;;;;;;45.97;17.02;;;1.40;99.90;;;;;;4429413;28;658374;-71
2023/04/07 08:06:43;;;;;;;52.60;17.17;;;1.30;99.90;;;;;;4440579;28;658108;-71
2023/04/07 08:09:31;;;;;;;51.27;15.13;;;1.10;99.90;;;;;;4419370;28;657645;-71
2023/04/07 08:12:20;;;;;;;46.73;17.13;;;1.00;99.90;;;;;;4459097;28;658006;-71
2023/04/07 08:15:09;;;;;;;51.90;17.70;;;1.00;99.90;;;;;;4420355;28;658358;-71
2023/04/07 08:17:56;;;;;;;47.60;18.23;;;1.10;99.90;;;;;;4418270;28;657729;-71
2023/04/07 08:20:43;;;;;;;60.13;19.65;;;1.00;99.90;;;;;;4457032;28;658897;-72
2023/04/07 08:23:30;;;;;;;55.07;19.97;;;1.20;99.90;;;;;;4424207;28;657814;-71
2023/04/07 08:26:18;;;;;;;53.80;20.03;;;1.20;99.90;;;;;;4443150;28;658656;-71
2023/04/07 08:29:07;;;;;;;570.47;35.77;;;1.20;99.90;;;;;;4437119;28;658209;-71
2023/04/07 08:31:54;;;;;;;62.97;22.77;;;1.30;99.90;;;;;;4441301;28;658477;-71
2023/04/07 08:34:41;;;;;;;69.30;22.77;;;1.10;99.90;;;;;;4438505;28;658450;-71
2023/04/07 08:37:28;;;;;;;66.77;20.63;;;0.90;99.90;;;;;;4451680;28;659691;-71
2023/04/07 08:40:15;;;;;;;58.70;19.17;;;1.00;99.90;;;;;;4424539;28;657882;-71
2023/04/07 08:43:03;;;;;;;57.73;19.37;;;1.00;99.90;;;;;;4441426;28;658621;-71
2023/04/07 08:45:52;;;;;;;58.40;21.33;;;1.00;99.90;;;;;;4430489;28;657655;-70
2023/04/07 08:48:39;;;;;;;68.27;19.33;;;1.10;99.90;;;;;;4450445;28;657375;-71
2023/04/07 08:51:28;;;;;;;51.57;20.23;;;1.10;99.90;;;;;;4429023;28;659022;-71
2023/04/07 08:54:17;;;;;;;80.93;21.90;;;1.30;99.90;;;;;;4427073;28;658371;-71
2023/04/07 08:57:04;;;;;;;72.17;21.93;;;1.40;99.90;;;;;;4442947;28;657577;-71
2023/04/07 08:59:52;;;;;;;65.57;20.83;;;1.40;99.90;;;;;;4422307;28;657272;-70
2023/04/07 09:02:42;;;;;;;78.17;21.23;;;1.40;99.90;;;;;;4441636;28;657267;-71
2023/04/07 09:05:29;;;;;;;95.60;25.00;;;1.20;99.90;;;;;;4421032;28;657523;-71
2023/04/07 09:08:16;;;;;;;76.27;22.03;;;1.10;99.90;;;;;;4418079;28;657607;-70
2023/04/07 09:11:04;;;;;;;65.13;20.87;;;1.30;99.90;;;;;;4440003;28;658368;-71
2023/04/07 09:13:51;;;;;;;71.07;24.33;;;1.30;99.90;;;;;;4435906;28;657883;-71
2023/04/07 09:16:39;;;;;;;72.97;23.40;;;1.10;99.90;;;;;;4442195;28;657928;-71
2023/04/07 09:19:29;;;;;;;81.97;24.73;;;1.20;99.90;;;;;;4418197;28;658151;-71
2023/04/07 09:22:33;;;;;;;69.77;23.07;;;1.20;99.90;;;;;;4410617;28;658185;-71
2023/04/07 09:25:22;;;;;;;71.27;21.40;;;1.30;99.90;;;;;;4393017;28;658346;-71
2023/04/07 09:28:09;;;;;;;54.00;18.33;;;1.50;99.90;;;;;;4458944;28;658101;-71
2023/04/07 09:30:57;;;;;;;74.53;22.43;;;1.50;99.90;;;;;;4436739;28;657782;-71
2023/04/07 09:33:44;;;;;;;59.50;18.73;;;1.60;99.90;;;;;;4447426;28;657457;-71
2023/04/07 09:36:34;;;;;;;53.90;20.20;;;1.50;99.90;;;;;;4419579;28;657817;-71
2023/04/07 09:39:21;;;;;;;54.53;18.50;;;1.40;99.90;;;;;;4434959;28;657665;-71
2023/04/07 09:42:08;;;;;;;45.57;17.27;;;1.40;99.90;;;;;;4453737;28;658321;-71
2023/04/07 09:44:55;;;;;;;42.53;16.20;;;1.50;99.90;;;;;;4426975;28;657407;-71
2023/04/07 09:47:44;;;;;;;45.27;16.53;;;1.50;99.90;;;;;;4447489;28;658989;-71
2023/04/07 09:50:32;;;;;;;43.23;15.97;;;1.50;99.90;;;;;;4435191;28;657515;-71
2023/04/07 09:53:22;;;;;;;49.40;17.73;;;1.50;99.90;;;;;;4437218;28;657655;-71
2023/04/07 09:56:09;;;;;;;38.90;16.07;;;1.50;99.90;;;;;;4447454;28;657380;-70
2023/04/07 09:58:56;;;;;;;39.70;15.03;;;1.40;99.90;;;;;;4421105;28;658572;-70
2023/04/07 10:01:44;;;;;;;46.77;16.57;;;1.50;99.90;;;;;;4457898;28;657990;-71
2023/04/07 10:04:31;;;;;;;52.03;17.97;;;1.50;99.90;;;;;;4442909;28;657549;-70
2023/04/07 10:07:18;;;;;;;40.80;16.43;;;1.60;99.90;;;;;;4447778;28;658055;-71
2023/04/07 10:10:08;;;;;;;35.97;14.70;;;1.60;99.90;;;;;;4428893;28;657611;-71
2023/04/07 10:12:55;;;;;;;46.37;17.47;;;1.60;99.90;;;;;;4435712;28;657829;-71
2023/04/07 10:15:43;;;;;;;41.77;17.30;;;1.50;99.90;;;;;;4451825;28;658912;-71
2023/04/07 10:18:30;;;;;;;46.60;16.83;;;1.60;99.90;;;;;;4449824;28;658988;-71
2023/04/07 10:21:18;;;;;;;51.87;19.67;;;1.50;99.90;;;;;;4453240;28;659191;-71
2023/04/07 10:24:09;;;;;;;64.97;21.50;;;1.60;99.90;;;;;;4434588;28;657651;-71
2023/04/07 10:27:00;;;;;;;67.93;20.77;;;1.60;99.90;;;;;;4420863;28;657565;-71
2023/04/07 10:29:49;;;;;;;74.10;22.00;;;1.60;99.90;;;;;;4424748;28;658737;-71
2023/04/07 10:32:46;;;;;;;68.10;22.37;;;1.50;99.90;;;;;;4436480;28;657556;-71
2023/04/07 10:36:03;;;;;;;62.70;21.50;;;1.60;99.90;;;;;;4423969;28;657616;-71
2023/04/07 10:39:22;;;;;;;55.97;21.70;;;1.60;99.90;;;;;;4415259;28;657810;-71
2023/04/07 10:42:29;;;;;;;51.10;20.80;;;1.70;99.90;;;;;;4428659;28;657328;-71
2023/04/07 10:45:16;;;;;;;66.30;23.63;;;1.90;99.90;;;;;;4427504;28;657692;-71
2023/04/07 10:48:10;;;;;;;64.67;20.80;;;1.70;99.90;;;;;;4447282;28;658161;-71
2023/04/07 10:51:19;;;;;;;61.10;22.47;;;1.60;99.90;;;;;;4439431;28;658095;-71
2023/04/07 10:54:16;;;;;;;73.40;23.80;;;1.70;99.90;;;;;;4431154;28;657574;-71
2023/04/07 10:57:11;;;;;;;59.80;21.63;;;1.90;99.90;;;;;;4431172;28;657837;-71
2023/04/07 11:00:19;;;;;;;59.20;21.57;;;2.00;99.90;;;;;;4429515;28;657803;-71
2023/04/07 11:03:11;;;;;;;53.20;21.20;;;1.80;99.90;;;;;;4438639;28;657468;-72
2023/04/07 11:06:03;;;;;;;48.37;20.97;;;1.80;99.90;;;;;;4431270;28;658899;-73
2023/04/07 11:08:50;;;;;;;55.97;21.23;;;2.00;99.90;;;;;;4414094;28;658228;-72
2023/04/07 11:11:39;;;;;;;52.47;20.00;;;1.90;99.90;;;;;;4450542;28;658770;-73
2023/04/07 11:14:27;;;;;;;53.88;21.33;;;1.90;99.90;;;;;;4424163;28;657668;-71
2023/04/07 11:17:17;;;;;;;309.10;26.97;;;1.80;99.90;;;;;;4450333;28;658658;-72
2023/04/07 11:20:05;;;;;;;49.37;19.67;;;1.90;99.90;;;;;;4430018;28;661023;-72
2023/04/07 11:23:00;;;;;;;56.53;21.83;;;1.90;99.90;;;;;;4413845;28;657951;-71
2023/04/07 11:25:49;;;;;;;61.70;22.40;;;1.90;99.90;;;;;;4424488;28;657777;-72
2023/04/07 11:28:36;;;;;;;47.92;20.95;;;1.90;99.90;;;;;;4435592;28;657620;-71
2023/04/07 11:31:24;;;;;;;47.23;19.87;;;1.90;99.90;;;;;;4451759;28;658466;-71
2023/04/07 11:34:12;;;;;;;52.60;21.53;;;2.00;99.90;;;;;;4438720;28;657638;-71
2023/04/07 11:37:18;;;;;;;43.50;18.40;;;2.20;99.90;;;;;;4440756;28;657283;-71
2023/04/07 11:40:07;;;;;;;43.63;19.03;;;2.30;99.90;;;;;;4408873;28;657979;-72
2023/04/07 11:42:55;;;;;;;48.43;20.27;;;2.20;99.90;;;;;;4452936;28;658124;-71
2023/04/07 11:45:42;;;;;;;45.47;17.90;;;2.10;99.90;;;;;;4434992;28;657774;-71
2023/04/07 11:48:30;;;;;;;47.30;20.07;;;2.00;99.90;;;;;;4443221;28;657755;-71
2023/04/07 11:51:19;;;;;;;50.37;21.40;;;2.00;99.90;;;;;;4429835;28;658753;-72
2023/04/07 11:54:06;;;;;;;53.23;22.17;;;2.10;99.90;;;;;;4419168;28;658167;-70
2023/04/07 11:56:55;;;;;;;46.50;17.13;;;2.20;99.90;;;;;;4446114;28;658273;-71
2023/04/07 11:59:42;;;;;;;48.43;22.17;;;2.00;99.90;;;;;;4427918;28;658381;-71
2023/04/07 12:02:32;;;;;;;49.93;20.77;;;2.10;99.90;;;;;;4452907;28;657441;-70
2023/04/07 12:05:19;;;;;;;45.03;17.27;;;2.10;99.90;;;;;;4419343;28;657505;-70
2023/04/07 12:08:08;;;;;;;47.03;20.57;;;2.00;99.90;;;;;;4432751;28;657653;-71
2023/04/07 12:11:03;;;;;;;53.50;20.77;;;2.10;99.90;;;;;;4434579;28;658115;-70
2023/04/07 12:13:51;;;;;;;52.73;21.10;;;2.10;99.90;;;;;;4403241;28;658195;-70
2023/04/07 12:16:38;;;;;;;57.10;23.37;;;2.10;99.90;;;;;;4448186;28;657727;-70
2023/04/07 12:19:26;;;;;;;53.73;20.57;;;2.10;99.90;;;;;;4441516;28;657732;-71
2023/04/07 12:22:13;;;;;;;53.20;22.37;;;2.10;99.90;;;;;;4450447;28;659237;-70
2023/04/07 12:25:02;;;;;;;55.93;23.10;;;2.20;99.90;;;;;;4420456;28;657880;-71
2023/04/07 12:27:49;;;;;;;52.50;23.07;;;2.20;99.90;;;;;;4454041;28;657984;-71
2023/04/07 12:30:36;;;;;;;56.60;23.00;;;2.10;99.90;;;;;;4435691;28;658426;-70
2023/04/07 12:33:24;;;;;;;56.77;22.77;;;2.20;99.90;;;;;;4453796;28;658503;-71
2023/04/07 12:36:11;;;;;;;53.50;21.37;;;2.30;99.90;;;;;;4432311;28;657512;-70
2023/04/07 12:38:58;;;;;;;46.17;21.13;;;2.20;99.90;;;;;;4447606;28;657732;-70
2023/04/07 12:41:47;;;;;;;54.27;23.03;;;2.20;99.90;;;;;;4430932;28;657685;-71
2023/04/07 12:44:35;;;;;;;48.33;21.93;;;2.40;99.90;;;;;;4439635;28;659424;-71
2023/04/07 12:47:22;;;;;;;57.43;23.23;;;2.30;99.90;;;;;;4429185;28;658894;-70
2023/04/07 12:50:10;;;;;;;51.47;23.13;;;2.20;99.90;;;;;;4454626;28;657900;-70
2023/04/07 12:52:58;;;;;;;58.57;23.50;;;2.30;99.90;;;;;;4429364;28;658822;-70
2023/04/07 12:55:45;;;;;;;50.50;22.50;;;2.40;99.90;;;;;;4432067;28;657476;-70
2023/04/07 12:58:34;;;;;;;53.10;22.67;;;2.40;99.90;;;;;;4443100;28;659055;-71
2023/04/07 13:01:21;;;;;;;44.50;19.98;;;2.40;99.90;;;;;;4432135;28;657409;-71
2023/04/07 13:04:09;;;;;;;50.00;19.93;;;2.30;99.90;;;;;;4441732;28;658265;-70
2023/04/07 13:06:57;;;;;;;44.73;19.43;;;2.30;99.90;;;;;;4435628;28;657479;-71
2023/04/07 13:09:44;;;;;;;48.97;20.97;;;2.40;99.90;;;;;;4448736;28;658163;-71
2023/04/07 13:12:31;;;;;;;43.43;18.40;;;2.40;99.90;;;;;;4432470;28;659037;-71
2023/04/07 13:15:20;;;;;;;49.00;21.53;;;2.40;99.90;;;;;;4463662;27;659129;-70
2023/04/07 13:18:07;;;;;;;45.67;18.80;;;2.40;99.90;;;;;;4424648;28;658375;-70
2023/04/07 13:20:54;;;;;;;45.27;19.07;;;2.40;99.90;;;;;;4456366;28;658559;-70
2023/04/07 13:23:41;;;;;;;45.53;21.60;;;2.40;99.90;;;;;;4434109;28;657625;-70
2023/04/07 13:26:28;;;;;;;44.90;19.50;;;2.30;99.90;;;;;;4456701;28;658544;-70
2023/04/07 13:29:16;;;;;;;46.27;21.10;;;2.20;99.90;;;;;;4432654;28;657728;-71
2023/04/07 13:32:08;;;;;;;43.47;20.13;;;2.20;99.90;;;;;;4456282;28;660064;-71
2023/04/07 13:34:55;;;;;;;49.13;20.83;;;2.20;99.90;;;;;;4415422;28;657688;-70
2023/04/07 13:37:43;;;;;;;46.23;20.40;;;2.20;99.90;;;;;;4446364;28;658538;-70
2023/04/07 13:40:30;;;;;;;40.85;19.20;;;2.10;99.90;;;;;;4436372;28;657683;-71
2023/04/07 13:43:17;;;;;;;41.87;19.97;;;2.10;99.90;;;;;;4455741;28;657965;-71
2023/04/07 13:46:05;;;;;;;43.83;20.17;;;2.10;99.90;;;;;;4453120;28;657553;-71
2023/04/07 13:48:54;;;;;;;41.13;19.97;;;2.20;99.90;;;;;;4458952;28;658047;-71
2023/04/07 13:51:41;;;;;;;45.40;20.00;;;2.20;99.90;;;;;;4414993;28;657817;-70
2023/04/07 13:54:29;;;;;;;38.87;18.93;;;2.20;99.90;;;;;;4442059;28;658376;-71
2023/04/07 13:57:19;;;;;;;52.43;21.57;;;2.30;99.90;;;;;;4421106;28;657793;-71
2023/04/07 14:00:08;;;;;;;46.77;19.67;;;2.30;99.90;;;;;;4420098;28;657568;-71
2023/04/07 14:02:55;;;;;;;42.50;19.60;;;2.20;99.90;;;;;;4428402;28;658544;-71
2023/04/07 14:05:44;;;;;;;43.77;20.43;;;2.30;99.90;;;;;;4439181;28;658668;-72
2023/04/07 14:08:31;;;;;;;41.27;19.37;;;2.30;99.90;;;;;;4419766;28;658484;-71
2023/04/07 14:11:18;;;;;;;45.33;18.37;;;2.40;99.90;;;;;;4449191;28;657856;-70
2023/04/07 14:14:06;;;;;;;40.57;18.03;;;2.40;99.90;;;;;;4422157;28;657779;-73